Accueil
METAR-TAF:

METAR-TAF

Aéroports :

Andora, Italie

Capo Mele

latitude: 43-57N, longitude: 008-10E, altitude: 220 m

Observation

Le bulletin a été fait il y a 50 minutes, à 02:55 UTC
Vent 10 kt de nord
Température 5°C
Humidité 87%
Pression 997 hPa
Visibilité: 5000 m
Quelques nuages à une hauteur de 1800 ft, Cumulus congestus.
Nuages fragmentés à une hauteur de 2000 ft
pluie faible, brume

METAR: LIMU 110255Z 36010KT 5000 -RA BR FEW018TCU BKN020 05/03 Q0997 RMK OVC QUK / QUL / VIS MAR 5 KM VIS MIN 5000

Heure: 04:45 (03:45 UTC)


TAF: absent

Observations et prévisions météorologiques de plus de 4000 aéroports (messages METAR et TAF).

Les stations disponibles sont représentées par des disques jaunes et rouges sur la carte.

Passer la souris dessus pour voir le nom de la station.

Cliquer dessus pour voir les observations et prévisions météorologiques.

Pour changer de carte: cliquez sur les boutons verts avec une croix noire pour zoomer, sur le bouton vert avec un tiret pour effectuer un zoom arrière, ou sur les flèches vertes pour les cartes adjacentes.


METAR-TAF: